sensor_id;sensor_type;location;lat;lon;timestamp;pressure;altitude;pressure_sealevel;temperature
49567;BMP280;35472;50.514;30.448;2024-02-21T00:02:03;100287.53;;;3.21
49567;BMP280;35472;50.514;30.448;2024-02-21T00:04:29;100292.59;;;3.26
49567;BMP280;35472;50.514;30.448;2024-02-21T00:06:54;100289.25;;;3.29
49567;BMP280;35472;50.514;30.448;2024-02-21T00:09:20;100286.59;;;3.29
49567;BMP280;35472;50.514;30.448;2024-02-21T00:11:45;100289.81;;;3.22
49567;BMP280;35472;50.514;30.448;2024-02-21T00:14:11;100281.75;;;3.19
49567;BMP280;35472;50.514;30.448;2024-02-21T00:16:36;100283.16;;;3.28
49567;BMP280;35472;50.514;30.448;2024-02-21T00:19:02;100278.88;;;3.52
49567;BMP280;35472;50.514;30.448;2024-02-21T00:21:27;100275.09;;;3.37
49567;BMP280;35472;50.514;30.448;2024-02-21T00:23:52;100271.91;;;3.19
49567;BMP280;35472;50.514;30.448;2024-02-21T00:26:18;100280.72;;;3.35
49567;BMP280;35472;50.514;30.448;2024-02-21T00:28:43;100276.72;;;3.42
49567;BMP280;35472;50.514;30.448;2024-02-21T00:31:10;100272.84;;;3.39
49567;BMP280;35472;50.514;30.448;2024-02-21T00:33:35;100267.09;;;3.37
49567;BMP280;35472;50.514;30.448;2024-02-21T00:36:01;100267.97;;;3.41
49567;BMP280;35472;50.514;30.448;2024-02-21T00:38:28;100270.81;;;3.48
49567;BMP280;35472;50.514;30.448;2024-02-21T00:40:54;100269.34;;;3.51
49567;BMP280;35472;50.514;30.448;2024-02-21T00:43:19;100264.72;;;3.48
49567;BMP280;35472;50.514;30.448;2024-02-21T00:45:49;100269.06;;;3.40
49567;BMP280;35472;50.514;30.448;2024-02-21T00:48:14;100261.78;;;3.37
49567;BMP280;35472;50.514;30.448;2024-02-21T00:50:40;100257.59;;;3.52
49567;BMP280;35472;50.514;30.448;2024-02-21T00:53:07;100254.63;;;3.53
49567;BMP280;35472;50.514;30.448;2024-02-21T00:55:33;100246.94;;;3.64
49567;BMP280;35472;50.514;30.448;2024-02-21T00:57:59;100246.94;;;3.64
49567;BMP280;35472;50.514;30.448;2024-02-21T01:00:24;100248.41;;;3.61
49567;BMP280;35472;50.514;30.448;2024-02-21T01:02:49;100242.09;;;3.54
49567;BMP280;35472;50.514;30.448;2024-02-21T01:05:15;100243.72;;;3.43
49567;BMP280;35472;50.514;30.448;2024-02-21T01:07:40;100236.41;;;3.67
49567;BMP280;35472;50.514;30.448;2024-02-21T01:10:06;100247.75;;;3.52
49567;BMP280;35472;50.514;30.448;2024-02-21T01:12:32;100240.16;;;3.66
49567;BMP280;35472;50.514;30.448;2024-02-21T01:14:57;100241.81;;;3.71
49567;BMP280;35472;50.514;30.448;2024-02-21T01:17:22;100231.75;;;3.64
49567;BMP280;35472;50.514;30.448;2024-02-21T01:19:48;100233.75;;;3.67
49567;BMP280;35472;50.514;30.448;2024-02-21T01:22:13;100228.41;;;3.67
49567;BMP280;35472;50.514;30.448;2024-02-21T01:24:40;100228.50;;;3.71
49567;BMP280;35472;50.514;30.448;2024-02-21T01:27:05;100235.75;;;3.86
49567;BMP280;35472;50.514;30.448;2024-02-21T01:29:30;100233.53;;;3.60
49567;BMP280;35472;50.514;30.448;2024-02-21T01:31:56;100231.66;;;3.76
49567;BMP280;35472;50.514;30.448;2024-02-21T01:34:21;100225.44;;;3.85
49567;BMP280;35472;50.514;30.448;2024-02-21T01:36:47;100229.94;;;3.68
49567;BMP280;35472;50.514;30.448;2024-02-21T01:39:12;100230.06;;;3.72
49567;BMP280;35472;50.514;30.448;2024-02-21T01:41:38;100230.72;;;3.69
49567;BMP280;35472;50.514;30.448;2024-02-21T01:44:03;100229.53;;;3.82
49567;BMP280;35472;50.514;30.448;2024-02-21T01:46:29;100226.63;;;3.87
49567;BMP280;35472;50.514;30.448;2024-02-21T01:48:56;100227.66;;;3.67
49567;BMP280;35472;50.514;30.448;2024-02-21T01:51:25;100235.50;;;3.91
49567;BMP280;35472;50.514;30.448;2024-02-21T01:53:51;100234.03;;;3.94
49567;BMP280;35472;50.514;30.448;2024-02-21T01:56:18;100232.56;;;3.96
49567;BMP280;35472;50.514;30.448;2024-02-21T01:58:45;100232.56;;;3.96
49567;BMP280;35472;50.514;30.448;2024-02-21T02:01:11;100227.41;;;3.88
49567;BMP280;35472;50.514;30.448;2024-02-21T02:03:37;100229.41;;;3.91
49567;BMP280;35472;50.514;30.448;2024-02-21T02:06:04;100226.91;;;4.13
49567;BMP280;35472;50.514;30.448;2024-02-21T02:08:31;100228.63;;;4.06
49567;BMP280;35472;50.514;30.448;2024-02-21T02:10:56;100227.69;;;4.14
49567;BMP280;35472;50.514;30.448;2024-02-21T02:13:22;100225.63;;;3.92
49567;BMP280;35472;50.514;30.448;2024-02-21T02:15:51;100221.91;;;3.96
49567;BMP280;35472;50.514;30.448;2024-02-21T02:18:17;100233.09;;;4.02
49567;BMP280;35472;50.514;30.448;2024-02-21T02:20:46;100228.72;;;4.09
49567;BMP280;35472;50.514;30.448;2024-02-21T02:25:41;100227.00;;;4.01
49567;BMP280;35472;50.514;30.448;2024-02-21T02:28:07;100226.75;;;3.91
49567;BMP280;35472;50.514;30.448;2024-02-21T02:30:33;100231.66;;;4.04
49567;BMP280;35472;50.514;30.448;2024-02-21T02:33:00;100231.53;;;3.85
49567;BMP280;35472;50.514;30.448;2024-02-21T02:35:28;100236.97;;;4.04
49567;BMP280;35472;50.514;30.448;2024-02-21T02:37:54;100240.31;;;4.17
49567;BMP280;35472;50.514;30.448;2024-02-21T02:40:19;100240.03;;;4.06
49567;BMP280;35472;50.514;30.448;2024-02-21T02:42:45;100245.81;;;3.93
49567;BMP280;35472;50.514;30.448;2024-02-21T02:45:10;100250.47;;;4.11
49567;BMP280;35472;50.514;30.448;2024-02-21T02:47:36;100248.59;;;4.12
49567;BMP280;35472;50.514;30.448;2024-02-21T02:50:01;100244.69;;;4.09
49567;BMP280;35472;50.514;30.448;2024-02-21T02:52:27;100261.25;;;4.03
49567;BMP280;35472;50.514;30.448;2024-02-21T02:54:52;100250.69;;;4.06
49567;BMP280;35472;50.514;30.448;2024-02-21T02:57:20;100248.41;;;4.05
49567;BMP280;35472;50.514;30.448;2024-02-21T02:59:50;100252.94;;;4.04
49567;BMP280;35472;50.514;30.448;2024-02-21T03:02:15;100252.38;;;4.11
49567;BMP280;35472;50.514;30.448;2024-02-21T03:04:41;100248.41;;;4.05
49567;BMP280;35472;50.514;30.448;2024-02-21T03:07:06;100253.19;;;4.15
49567;BMP280;35472;50.514;30.448;2024-02-21T03:09:32;100252.28;;;4.23
49567;BMP280;35472;50.514;30.448;2024-02-21T03:11:57;100257.78;;;4.14
49567;BMP280;35472;50.514;30.448;2024-02-21T03:14:29;100255.00;;;4.27
49567;BMP280;35472;50.514;30.448;2024-02-21T03:16:55;100262.66;;;4.12
49567;BMP280;35472;50.514;30.448;2024-02-21T03:19:21;100266.50;;;4.15
49567;BMP280;35472;50.514;30.448;2024-02-21T03:21:46;100264.13;;;4.26
49567;BMP280;35472;50.514;30.448;2024-02-21T03:24:12;100266.44;;;4.43
49567;BMP280;35472;50.514;30.448;2024-02-21T03:26:37;100264.31;;;4.33
49567;BMP280;35472;50.514;30.448;2024-02-21T03:29:03;100268.00;;;4.28
49567;BMP280;35472;50.514;30.448;2024-02-21T03:31:29;100262.84;;;4.35
49567;BMP280;35472;50.514;30.448;2024-02-21T03:33:54;100255.78;;;4.27
49567;BMP280;35472;50.514;30.448;2024-02-21T03:36:20;100266.16;;;4.63
49567;BMP280;35472;50.514;30.448;2024-02-21T03:38:45;100262.97;;;4.58
49567;BMP280;35472;50.514;30.448;2024-02-21T03:41:10;100272.31;;;4.48
49567;BMP280;35472;50.514;30.448;2024-02-21T03:43:37;100267.28;;;4.62
49567;BMP280;35472;50.514;30.448;2024-02-21T03:46:03;100268.53;;;4.49
49567;BMP280;35472;50.514;30.448;2024-02-21T03:48:28;100276.25;;;4.54
49567;BMP280;35472;50.514;30.448;2024-02-21T03:50:54;100269.72;;;4.36
49567;BMP280;35472;50.514;30.448;2024-02-21T03:53:19;100284.41;;;4.61
49567;BMP280;35472;50.514;30.448;2024-02-21T03:55:44;100282.59;;;4.65
49567;BMP280;35472;50.514;30.448;2024-02-21T03:58:10;100274.59;;;4.50
49567;BMP280;35472;50.514;30.448;2024-02-21T04:00:35;100277.63;;;4.48
49567;BMP280;35472;50.514;30.448;2024-02-21T04:03:00;100274.59;;;4.50
49567;BMP280;35472;50.514;30.448;2024-02-21T04:05:26;100273.94;;;4.53
49567;BMP280;35472;50.514;30.448;2024-02-21T04:07:53;100276.66;;;4.56
49567;BMP280;35472;50.514;30.448;2024-02-21T04:10:18;100270.94;;;4.54
49567;BMP280;35472;50.514;30.448;2024-02-21T04:12:44;100278.91;;;4.70
49567;BMP280;35472;50.514;30.448;2024-02-21T04:15:09;100274.94;;;4.64
49567;BMP280;35472;50.514;30.448;2024-02-21T04:17:36;100284.94;;;4.67
49567;BMP280;35472;50.514;30.448;2024-02-21T04:20:03;100279.03;;;4.77
49567;BMP280;35472;50.514;30.448;2024-02-21T04:22:31;100279.47;;;4.79
49567;BMP280;35472;50.514;30.448;2024-02-21T04:24:57;100286.09;;;4.85
49567;BMP280;35472;50.514;30.448;2024-02-21T04:27:22;100279.47;;;4.79
49567;BMP280;35472;50.514;30.448;2024-02-21T04:29:48;100285.31;;;4.85
49567;BMP280;35472;50.514;30.448;2024-02-21T04:32:13;100285.94;;;4.62
49567;BMP280;35472;50.514;30.448;2024-02-21T04:34:41;100286.56;;;4.72
49567;BMP280;35472;50.514;30.448;2024-02-21T04:37:06;100294.09;;;4.70
49567;BMP280;35472;50.514;30.448;2024-02-21T04:39:31;100291.94;;;4.75
49567;BMP280;35472;50.514;30.448;2024-02-21T04:41:57;100290.50;;;4.62
49567;BMP280;35472;50.514;30.448;2024-02-21T04:44:22;100302.19;;;4.73
49567;BMP280;35472;50.514;30.448;2024-02-21T04:46:48;100298.31;;;4.86
49567;BMP280;35472;50.514;30.448;2024-02-21T04:49:13;100299.22;;;4.94
49567;BMP280;35472;50.514;30.448;2024-02-21T04:51:40;100303.66;;;4.86
49567;BMP280;35472;50.514;30.448;2024-02-21T04:54:08;100307.06;;;5.02
49567;BMP280;35472;50.514;30.448;2024-02-21T04:56:34;100297.41;;;4.98
49567;BMP280;35472;50.514;30.448;2024-02-21T04:58:59;100311.47;;;4.79
49567;BMP280;35472;50.514;30.448;2024-02-21T05:01:25;100307.75;;;4.84
49567;BMP280;35472;50.514;30.448;2024-02-21T05:03:50;100308.00;;;4.94
49567;BMP280;35472;50.514;30.448;2024-02-21T05:06:15;100307.84;;;4.87
49567;BMP280;35472;50.514;30.448;2024-02-21T05:08:41;100308.28;;;4.89
49567;BMP280;35472;50.514;30.448;2024-02-21T05:11:06;100316.28;;;4.74
49567;BMP280;35472;50.514;30.448;2024-02-21T05:13:32;100318.88;;;4.86
49567;BMP280;35472;50.514;30.448;2024-02-21T05:15:57;100317.84;;;4.90
49567;BMP280;35472;50.514;30.448;2024-02-21T05:18:27;100314.13;;;4.63
49567;BMP280;35472;50.514;30.448;2024-02-21T05:20:52;100322.72;;;5.04
49567;BMP280;35472;50.514;30.448;2024-02-21T05:23:17;100321.31;;;5.10
49567;BMP280;35472;50.514;30.448;2024-02-21T05:25:43;100323.06;;;5.02
49567;BMP280;35472;50.514;30.448;2024-02-21T05:28:08;100324.91;;;5.18
49567;BMP280;35472;50.514;30.448;2024-02-21T05:30:33;100320.22;;;4.95
49567;BMP280;35472;50.514;30.448;2024-02-21T05:32:59;100326.50;;;4.87
49567;BMP280;35472;50.514;30.448;2024-02-21T05:35:26;100328.84;;;4.89
49567;BMP280;35472;50.514;30.448;2024-02-21T05:37:52;100328.25;;;5.15
49567;BMP280;35472;50.514;30.448;2024-02-21T05:40:19;100334.63;;;5.10
49567;BMP280;35472;50.514;30.448;2024-02-21T05:42:45;100324.88;;;4.98
49567;BMP280;35472;50.514;30.448;2024-02-21T05:45:10;100332.09;;;4.82
49567;BMP280;35472;50.514;30.448;2024-02-21T05:47:36;100333.88;;;5.09
49567;BMP280;35472;50.514;30.448;2024-02-21T05:50:01;100326.44;;;5.19
49567;BMP280;35472;50.514;30.448;2024-02-21T05:52:27;100325.69;;;5.18
49567;BMP280;35472;50.514;30.448;2024-02-21T05:54:52;100321.41;;;5.33
49567;BMP280;35472;50.514;30.448;2024-02-21T05:57:18;100330.47;;;5.28
49567;BMP280;35472;50.514;30.448;2024-02-21T05:59:44;100334.47;;;5.38
49567;BMP280;35472;50.514;30.448;2024-02-21T06:02:09;100328.00;;;5.54
49567;BMP280;35472;50.514;30.448;2024-02-21T06:04:35;100338.25;;;5.72
49567;BMP280;35472;50.514;30.448;2024-02-21T06:07:00;100334.19;;;5.81
49567;BMP280;35472;50.514;30.448;2024-02-21T06:09:28;100331.41;;;5.74
49567;BMP280;35472;50.514;30.448;2024-02-21T06:11:54;100328.88;;;5.62
49567;BMP280;35472;50.514;30.448;2024-02-21T06:14:19;100331.13;;;5.98
49567;BMP280;35472;50.514;30.448;2024-02-21T06:16:45;100342.63;;;6.02
49567;BMP280;35472;50.514;30.448;2024-02-21T06:19:12;100335.84;;;6.31
49567;BMP280;35472;50.514;30.448;2024-02-21T06:21:37;100329.03;;;6.34
49567;BMP280;35472;50.514;30.448;2024-02-21T06:24:03;100329.97;;;6.41
49567;BMP280;35472;50.514;30.448;2024-02-21T06:26:29;100337.16;;;6.64
49567;BMP280;35472;50.514;30.448;2024-02-21T06:28:54;100333.72;;;6.63
49567;BMP280;35472;50.514;30.448;2024-02-21T06:31:23;100341.25;;;6.54
49567;BMP280;35472;50.514;30.448;2024-02-21T06:33:48;100336.28;;;6.33
49567;BMP280;35472;50.514;30.448;2024-02-21T06:36:13;100344.81;;;5.78
49567;BMP280;35472;50.514;30.448;2024-02-21T06:38:39;100344.97;;;6.27
49567;BMP280;35472;50.514;30.448;2024-02-21T06:41:04;100337.22;;;6.44
49567;BMP280;35472;50.514;30.448;2024-02-21T06:43:30;100351.06;;;6.50
49567;BMP280;35472;50.514;30.448;2024-02-21T06:45:55;100344.56;;;6.47
49567;BMP280;35472;50.514;30.448;2024-02-21T06:48:22;100341.75;;;6.63
49567;BMP280;35472;50.514;30.448;2024-02-21T06:50:47;100340.75;;;6.75
49567;BMP280;35472;50.514;30.448;2024-02-21T06:53:13;100342.47;;;6.37
49567;BMP280;35472;50.514;30.448;2024-02-21T06:55:38;100352.88;;;6.65
49567;BMP280;35472;50.514;30.448;2024-02-21T06:58:04;100344.50;;;6.67
49567;BMP280;35472;50.514;30.448;2024-02-21T07:00:29;100352.72;;;6.55
49567;BMP280;35472;50.514;30.448;2024-02-21T07:02:55;100350.88;;;6.85
49567;BMP280;35472;50.514;30.448;2024-02-21T07:05:20;100362.84;;;6.94
49567;BMP280;35472;50.514;30.448;2024-02-21T07:07:46;100355.78;;;6.83
49567;BMP280;35472;50.514;30.448;2024-02-21T07:10:11;100351.00;;;6.69
49567;BMP280;35472;50.514;30.448;2024-02-21T07:12:37;100354.66;;;6.84
49567;BMP280;35472;50.514;30.448;2024-02-21T07:15:09;100358.31;;;6.72
49567;BMP280;35472;50.514;30.448;2024-02-21T07:17:34;100356.47;;;6.76
49567;BMP280;35472;50.514;30.448;2024-02-21T07:20:00;100365.94;;;6.47
49567;BMP280;35472;50.514;30.448;2024-02-21T07:22:26;100371.03;;;6.56
49567;BMP280;35472;50.514;30.448;2024-02-21T07:24:51;100359.41;;;6.68
49567;BMP280;35472;50.514;30.448;2024-02-21T07:27:17;100362.44;;;6.66
49567;BMP280;35472;50.514;30.448;2024-02-21T07:29:42;100366.09;;;6.81
49567;BMP280;35472;50.514;30.448;2024-02-21T07:32:12;100365.47;;;6.68
49567;BMP280;35472;50.514;30.448;2024-02-21T07:34:38;100368.16;;;6.68
49567;BMP280;35472;50.514;30.448;2024-02-21T07:37:05;100362.50;;;6.96
49567;BMP280;35472;50.514;30.448;2024-02-21T07:39:31;100369.44;;;7.01
49567;BMP280;35472;50.514;30.448;2024-02-21T07:41:56;100366.53;;;6.60
49567;BMP280;35472;50.514;30.448;2024-02-21T07:44:22;100376.19;;;6.91
49567;BMP280;35472;50.514;30.448;2024-02-21T07:46:47;100384.53;;;6.86
49567;BMP280;35472;50.514;30.448;2024-02-21T07:49:13;100391.72;;;7.08
49567;BMP280;35472;50.514;30.448;2024-02-21T07:51:38;100384.88;;;7.11
49567;BMP280;35472;50.514;30.448;2024-02-21T07:54:04;100382.91;;;7.34
49567;BMP280;35472;50.514;30.448;2024-02-21T07:56:29;100385.72;;;7.45
49567;BMP280;35472;50.514;30.448;2024-02-21T07:58:55;100382.00;;;7.23
49567;BMP280;35472;50.514;30.448;2024-02-21T08:01:21;100378.25;;;7.31
49567;BMP280;35472;50.514;30.448;2024-02-21T08:03:47;100384.38;;;7.31
49567;BMP280;35472;50.514;30.448;2024-02-21T08:06:13;100385.94;;;7.32
49567;BMP280;35472;50.514;30.448;2024-02-21T08:08:39;100385.13;;;7.58
49567;BMP280;35472;50.514;30.448;2024-02-21T08:11:04;100382.75;;;7.83
49567;BMP280;35472;50.514;30.448;2024-02-21T08:13:30;100381.88;;;7.75
49567;BMP280;35472;50.514;30.448;2024-02-21T08:15:55;100374.72;;;7.53
49567;BMP280;35472;50.514;30.448;2024-02-21T08:18:21;100384.63;;;7.49
49567;BMP280;35472;50.514;30.448;2024-02-21T08:20:46;100382.09;;;7.30
49567;BMP280;35472;50.514;30.448;2024-02-21T08:23:11;100377.97;;;7.69
49567;BMP280;35472;50.514;30.448;2024-02-21T08:25:37;100384.88;;;7.70
49567;BMP280;35472;50.514;30.448;2024-02-21T08:28:03;100385.84;;;7.85
49567;BMP280;35472;50.514;30.448;2024-02-21T08:30:28;100378.94;;;7.87
49567;BMP280;35472;50.514;30.448;2024-02-21T08:32:53;100372.63;;;7.69
49567;BMP280;35472;50.514;30.448;2024-02-21T08:35:19;100370.88;;;8.21
49567;BMP280;35472;50.514;30.448;2024-02-21T08:37:46;100378.06;;;8.13
49567;BMP280;35472;50.514;30.448;2024-02-21T08:40:13;100368.78;;;8.44
49567;BMP280;35472;50.514;30.448;2024-02-21T08:42:39;100375.91;;;8.73
49567;BMP280;35472;50.514;30.448;2024-02-21T08:45:04;100374.91;;;8.45
49567;BMP280;35472;50.514;30.448;2024-02-21T08:47:30;100376.94;;;8.62
49567;BMP280;35472;50.514;30.448;2024-02-21T08:49:55;100376.34;;;8.86
49567;BMP280;35472;50.514;30.448;2024-02-21T08:52:21;100377.09;;;8.83
49567;BMP280;35472;50.514;30.448;2024-02-21T08:54:46;100377.72;;;9.24
49567;BMP280;35472;50.514;30.448;2024-02-21T08:57:11;100379.00;;;9.48
49567;BMP280;35472;50.514;30.448;2024-02-21T08:59:39;100380.84;;;9.37
49567;BMP280;35472;50.514;30.448;2024-02-21T09:02:05;100376.16;;;9.19
49567;BMP280;35472;50.514;30.448;2024-02-21T09:04:32;100378.09;;;8.61
49567;BMP280;35472;50.514;30.448;2024-02-21T09:06:58;100374.34;;;8.69
49567;BMP280;35472;50.514;30.448;2024-02-21T09:09:23;100376.94;;;8.55
49567;BMP280;35472;50.514;30.448;2024-02-21T09:11:49;100375.31;;;8.47
49567;BMP280;35472;50.514;30.448;2024-02-21T09:14:14;100379.91;;;8.50
49567;BMP280;35472;50.514;30.448;2024-02-21T09:16:40;100374.50;;;8.39
49567;BMP280;35472;50.514;30.448;2024-02-21T09:19:06;100379.34;;;8.30
49567;BMP280;35472;50.514;30.448;2024-02-21T09:21:32;100379.72;;;8.25
49567;BMP280;35472;50.514;30.448;2024-02-21T09:24:00;100381.50;;;8.54
49567;BMP280;35472;50.514;30.448;2024-02-21T09:26:26;100388.38;;;8.48
49567;BMP280;35472;50.514;30.448;2024-02-21T09:28:51;100382.44;;;8.28
49567;BMP280;35472;50.514;30.448;2024-02-21T09:31:16;100381.75;;;8.39
49567;BMP280;35472;50.514;30.448;2024-02-21T09:33:42;100384.22;;;8.58
49567;BMP280;35472;50.514;30.448;2024-02-21T09:36:07;100380.13;;;8.27
49567;BMP280;35472;50.514;30.448;2024-02-21T09:38:33;100383.75;;;8.05
49567;BMP280;35472;50.514;30.448;2024-02-21T09:41:00;100382.13;;;7.97
49567;BMP280;35472;50.514;30.448;2024-02-21T09:43:26;100380.47;;;7.85
49567;BMP280;35472;50.514;30.448;2024-02-21T09:45:54;100379.16;;;8.09
49567;BMP280;35472;50.514;30.448;2024-02-21T09:48:45;100371.81;;;7.99
49567;BMP280;35472;50.514;30.448;2024-02-21T09:51:16;100373.84;;;8.12
49567;BMP280;35472;50.514;30.448;2024-02-21T09:53:43;100376.22;;;8.17
49567;BMP280;35472;50.514;30.448;2024-02-21T09:56:10;100365.53;;;8.24
49567;BMP280;35472;50.514;30.448;2024-02-21T09:58:36;100368.94;;;8.18
49567;BMP280;35472;50.514;30.448;2024-02-21T10:01:02;100374.69;;;7.83
49567;BMP280;35472;50.514;30.448;2024-02-21T10:03:29;100362.69;;;8.07
49567;BMP280;35472;50.514;30.448;2024-02-21T10:05:56;100364.59;;;8.06
49567;BMP280;35472;50.514;30.448;2024-02-21T10:08:23;100367.66;;;8.05
49567;BMP280;35472;50.514;30.448;2024-02-21T10:10:49;100366.84;;;8.01
49567;BMP280;35472;50.514;30.448;2024-02-21T10:13:26;100368.50;;;7.75
49567;BMP280;35472;50.514;30.448;2024-02-21T10:16:07;100357.66;;;8.02
49567;BMP280;35472;50.514;30.448;2024-02-21T10:18:34;100362.56;;;8.36
49567;BMP280;35472;50.514;30.448;2024-02-21T10:21:07;100359.44;;;8.31
49567;BMP280;35472;50.514;30.448;2024-02-21T10:23:47;100361.56;;;8.08
49567;BMP280;35472;50.514;30.448;2024-02-21T10:26:14;100365.38;;;8.07
49567;BMP280;35472;50.514;30.448;2024-02-21T10:28:39;100355.28;;;8.33
49567;BMP280;35472;50.514;30.448;2024-02-21T10:31:11;100354.88;;;8.79
49567;BMP280;35472;50.514;30.448;2024-02-21T10:33:37;100352.97;;;8.87
49567;BMP280;35472;50.514;30.448;2024-02-21T10:36:07;100360.47;;;9.21
49567;BMP280;35472;50.514;30.448;2024-02-21T10:38:33;100347.91;;;8.74
49567;BMP280;35472;50.514;30.448;2024-02-21T10:40:59;100348.47;;;8.98
49567;BMP280;35472;50.514;30.448;2024-02-21T10:43:28;100353.41;;;8.92
49567;BMP280;35472;50.514;30.448;2024-02-21T10:46:00;100355.56;;;8.72
49567;BMP280;35472;50.514;30.448;2024-02-21T10:48:37;100348.78;;;8.34
49567;BMP280;35472;50.514;30.448;2024-02-21T10:51:16;100341.72;;;8.63
49567;BMP280;35472;50.514;30.448;2024-02-21T10:53:59;100345.13;;;8.60
49567;BMP280;35472;50.514;30.448;2024-02-21T10:56:31;100337.44;;;8.55
49567;BMP280;35472;50.514;30.448;2024-02-21T10:59:02;100340.97;;;8.19
49567;BMP280;35472;50.514;30.448;2024-02-21T11:01:28;100346.50;;;8.36
49567;BMP280;35472;50.514;30.448;2024-02-21T11:03:56;100336.69;;;8.55
49567;BMP280;35472;50.514;30.448;2024-02-21T11:06:22;100328.88;;;8.35
49567;BMP280;35472;50.514;30.448;2024-02-21T11:11:28;100332.78;;;8.49
49567;BMP280;35472;50.514;30.448;2024-02-21T11:14:03;100328.09;;;8.35
49567;BMP280;35472;50.514;30.448;2024-02-21T11:16:35;100335.47;;;8.49
49567;BMP280;35472;50.514;30.448;2024-02-21T11:19:20;100339.72;;;8.53
49567;BMP280;35472;50.514;30.448;2024-02-21T11:21:47;100333.56;;;8.49
49567;BMP280;35472;50.514;30.448;2024-02-21T11:24:32;100334.19;;;8.32
49567;BMP280;35472;50.514;30.448;2024-02-21T11:27:13;100331.09;;;8.26
49567;BMP280;35472;50.514;30.448;2024-02-21T11:29:55;100330.41;;;8.36
49567;BMP280;35472;50.514;30.448;2024-02-21T11:32:21;100334.91;;;8.80
49567;BMP280;35472;50.514;30.448;2024-02-21T11:35:01;100336.53;;;8.92
49567;BMP280;35472;50.514;30.448;2024-02-21T11:37:29;100333.06;;;8.88
49567;BMP280;35472;50.514;30.448;2024-02-21T11:39:55;100326.75;;;8.62
49567;BMP280;35472;50.514;30.448;2024-02-21T11:42:21;100335.06;;;8.98
49567;BMP280;35472;50.514;30.448;2024-02-21T11:44:46;100328.38;;;9.53
49567;BMP280;35472;50.514;30.448;2024-02-21T11:47:14;100335.19;;;9.37
49567;BMP280;35472;50.514;30.448;2024-02-21T11:49:45;100330.88;;;9.18
49567;BMP280;35472;50.514;30.448;2024-02-21T11:52:15;100332.41;;;9.12
49567;BMP280;35472;50.514;30.448;2024-02-21T11:54:42;100335.53;;;9.28
49567;BMP280;35472;50.514;30.448;2024-02-21T11:57:07;100326.34;;;9.36
49567;BMP280;35472;50.514;30.448;2024-02-21T11:59:34;100331.69;;;9.22
49567;BMP280;35472;50.514;30.448;2024-02-21T12:02:06;100334.75;;;9.24
49567;BMP280;35472;50.514;30.448;2024-02-21T12:04:32;100331.59;;;8.97
49567;BMP280;35472;50.514;30.448;2024-02-21T12:06:58;100334.41;;;9.32
49567;BMP280;35472;50.514;30.448;2024-02-21T12:09:24;100328.34;;;9.64
49567;BMP280;35472;50.514;30.448;2024-02-21T12:12:03;100329.03;;;9.25
49567;BMP280;35472;50.514;30.448;2024-02-21T12:14:30;100326.47;;;8.81
49567;BMP280;35472;50.514;30.448;2024-02-21T12:16:56;100325.03;;;8.95
49567;BMP280;35472;50.514;30.448;2024-02-21T12:19:22;100325.28;;;8.72
49567;BMP280;35472;50.514;30.448;2024-02-21T12:21:48;100322.44;;;9.12
49567;BMP280;35472;50.514;30.448;2024-02-21T12:24:25;100328.63;;;9.23
49567;BMP280;35472;50.514;30.448;2024-02-21T12:26:51;100326.41;;;9.50
49567;BMP280;35472;50.514;30.448;2024-02-21T12:29:23;100325.19;;;9.23
49567;BMP280;35472;50.514;30.448;2024-02-21T12:31:50;100329.94;;;8.82
49567;BMP280;35472;50.514;30.448;2024-02-21T12:34:15;100328.47;;;8.88
49567;BMP280;35472;50.514;30.448;2024-02-21T12:36:42;100329.16;;;8.81
49567;BMP280;35472;50.514;30.448;2024-02-21T12:39:09;100333.84;;;8.92
49567;BMP280;35472;50.514;30.448;2024-02-21T12:41:35;100329.66;;;7.96
49567;BMP280;35472;50.514;30.448;2024-02-21T12:44:06;100332.59;;;8.24
49567;BMP280;35472;50.514;30.448;2024-02-21T12:46:36;100335.78;;;8.40
49567;BMP280;35472;50.514;30.448;2024-02-21T12:49:02;100347.16;;;8.23
49567;BMP280;35472;50.514;30.448;2024-02-21T12:51:32;100336.94;;;8.43
49567;BMP280;35472;50.514;30.448;2024-02-21T12:53:58;100344.69;;;8.51
49567;BMP280;35472;50.514;30.448;2024-02-21T12:56:24;100348.66;;;8.68
49567;BMP280;35472;50.514;30.448;2024-02-21T12:58:51;100341.41;;;8.75
49567;BMP280;35472;50.514;30.448;2024-02-21T13:01:18;100348.63;;;8.64
49567;BMP280;35472;50.514;30.448;2024-02-21T13:03:44;100342.06;;;8.55
49567;BMP280;35472;50.514;30.448;2024-02-21T13:06:09;100343.06;;;8.36
49567;BMP280;35472;50.514;30.448;2024-02-21T13:08:39;100352.47;;;8.70
49567;BMP280;35472;50.514;30.448;2024-02-21T13:11:08;100345.28;;;8.78
49567;BMP280;35472;50.514;30.448;2024-02-21T13:13:34;100354.91;;;8.90
49567;BMP280;35472;50.514;30.448;2024-02-21T13:15:59;100358.25;;;8.72
49567;BMP280;35472;50.514;30.448;2024-02-21T13:18:25;100355.50;;;8.58
49567;BMP280;35472;50.514;30.448;2024-02-21T13:20:52;100354.75;;;8.65
49567;BMP280;35472;50.514;30.448;2024-02-21T13:23:17;100357.38;;;8.61
49567;BMP280;35472;50.514;30.448;2024-02-21T13:25:43;100359.41;;;8.75
49567;BMP280;35472;50.514;30.448;2024-02-21T13:28:12;100359.47;;;8.78
49567;BMP280;35472;50.514;30.448;2024-02-21T13:30:40;100356.81;;;8.86
49567;BMP280;35472;50.514;30.448;2024-02-21T13:33:06;100354.13;;;8.89
49567;BMP280;35472;50.514;30.448;2024-02-21T13:35:32;100359.13;;;8.87
49567;BMP280;35472;50.514;30.448;2024-02-21T13:37:58;100362.41;;;8.59
49567;BMP280;35472;50.514;30.448;2024-02-21T13:40:23;100365.44;;;8.61
49567;BMP280;35472;50.514;30.448;2024-02-21T13:42:50;100363.59;;;8.65
49567;BMP280;35472;50.514;30.448;2024-02-21T13:45:16;100362.84;;;8.68
49567;BMP280;35472;50.514;30.448;2024-02-21T13:47:42;100359.22;;;8.98
49567;BMP280;35472;50.514;30.448;2024-02-21T13:50:07;100356.34;;;9.42
49567;BMP280;35472;50.514;30.448;2024-02-21T13:52:40;100362.09;;;9.44
49567;BMP280;35472;50.514;30.448;2024-02-21T13:55:06;100361.22;;;9.15
49567;BMP280;35472;50.514;30.448;2024-02-21T13:57:36;100370.34;;;9.03
49567;BMP280;35472;50.514;30.448;2024-02-21T14:00:02;100361.19;;;8.53